createdAt,value
2023-01-20T00:00:05.020Z,9.14
2023-01-20T00:02:17.119Z,9.09
2023-01-20T00:04:22.179Z,9.12
2023-01-20T00:06:25.714Z,9.11
2023-01-20T00:08:27.852Z,9.09
2023-01-20T00:10:30.050Z,9.13
2023-01-20T00:12:32.345Z,9.15
2023-01-20T00:14:34.385Z,9.17
2023-01-20T00:16:36.510Z,9.14
2023-01-20T00:18:41.564Z,9.11
2023-01-20T00:20:43.915Z,9.14
2023-01-20T00:22:46.108Z,9.06
2023-01-20T00:24:48.451Z,9.03
2023-01-20T00:26:50.548Z,9.01
2023-01-20T00:28:57.890Z,9.04
2023-01-20T00:31:13.530Z,9.01
2023-01-20T00:33:15.753Z,9.06
2023-01-20T00:35:17.745Z,9.05
2023-01-20T00:37:20.211Z,9.06
2023-01-20T00:39:22.506Z,9.09
2023-01-20T00:41:24.964Z,9.05
2023-01-20T00:43:27.192Z,9.06
2023-01-20T00:45:29.332Z,9.09
2023-01-20T00:47:31.245Z,9.06
2023-01-20T00:49:33.220Z,9.08
2023-01-20T00:51:35.271Z,9.02
2023-01-20T00:53:39.205Z,8.98
2023-01-20T00:55:41.266Z,8.93
2023-01-20T00:57:43.393Z,8.97
2023-01-20T00:59:45.402Z,8.95
2023-01-20T01:01:47.585Z,8.99
2023-01-20T01:03:49.978Z,9.02
2023-01-20T01:05:52.103Z,8.98
2023-01-20T01:07:54.153Z,8.97
2023-01-20T01:09:56.134Z,8.98
2023-01-20T01:11:58.410Z,8.99
2023-01-20T01:14:00.668Z,8.99
2023-01-20T01:16:02.871Z,8.87
2023-01-20T01:18:05.229Z,8.90
2023-01-20T01:20:07.654Z,8.92
2023-01-20T01:22:09.915Z,8.87
2023-01-20T01:24:12.056Z,8.86
2023-01-20T01:26:14.429Z,8.90
2023-01-20T01:28:16.497Z,8.98
2023-01-20T01:30:18.844Z,8.96
2023-01-20T01:32:21.093Z,8.89
2023-01-20T01:34:23.387Z,8.85
2023-01-20T01:37:15.531Z,8.84
2023-01-20T01:39:20.218Z,8.79
2023-01-20T01:41:22.301Z,8.82
2023-01-20T01:43:27.611Z,8.79
2023-01-20T01:45:33.461Z,8.74
2023-01-20T01:47:36.335Z,8.83
2023-01-20T01:49:38.274Z,8.74
2023-01-20T01:51:49.959Z,8.67
2023-01-20T01:54:04.402Z,8.59
2023-01-20T01:56:07.049Z,8.69
2023-01-20T01:58:13.748Z,8.62
2023-01-20T02:00:16.132Z,8.63
2023-01-20T02:02:22.716Z,8.62
2023-01-20T02:04:27.803Z,8.64
2023-01-20T02:06:34.497Z,8.54
2023-01-20T02:08:40.288Z,8.58
2023-01-20T02:10:42.365Z,8.49
2023-01-20T02:12:49.604Z,8.54
2023-01-20T02:14:59.429Z,8.50
2023-01-20T02:17:07.359Z,8.55
2023-01-20T02:19:27.978Z,8.60
2023-01-20T02:21:32.656Z,8.52
2023-01-20T02:24:12.148Z,8.43
2023-01-20T02:26:19.902Z,8.58
2023-01-20T02:29:10.838Z,8.51
2023-01-20T02:31:34.253Z,8.35
2023-01-20T02:33:46.320Z,8.42
2023-01-20T02:36:10.270Z,8.41
2023-01-20T02:38:24.415Z,8.40
2023-01-20T02:40:32.405Z,8.38
2023-01-20T02:42:42.694Z,8.39
2023-01-20T02:44:50.954Z,8.36
2023-01-20T02:47:09.785Z,8.32
2023-01-20T02:49:25.383Z,8.27
2023-01-20T02:51:44.268Z,8.23
2023-01-20T02:53:58.970Z,8.14
2023-01-20T02:56:01.348Z,8.22
2023-01-20T02:58:11.284Z,8.19
2023-01-20T03:00:20.627Z,8.22
2023-01-20T03:02:25.777Z,8.08
2023-01-20T03:04:32.011Z,8.04
2023-01-20T03:06:38.542Z,8.13
2023-01-20T03:08:41.691Z,8.14
2023-01-20T03:10:46.478Z,8.05
2023-01-20T03:12:57.783Z,8.03
2023-01-20T03:14:59.631Z,8.11
2023-01-20T03:17:03.049Z,8.15
2023-01-20T03:19:05.085Z,8.09
2023-01-20T03:21:09.362Z,8.07
2023-01-20T03:23:11.918Z,8.05
2023-01-20T03:25:15.261Z,8.05
2023-01-20T03:27:17.849Z,8.02
2023-01-20T03:29:19.891Z,8.01
2023-01-20T03:31:26.639Z,8.02
2023-01-20T03:33:28.931Z,7.94
2023-01-20T03:35:32.293Z,8.00
2023-01-20T03:37:34.669Z,7.98
2023-01-20T03:39:40.056Z,8.00
2023-01-20T03:42:16.563Z,7.98
2023-01-20T03:44:27.906Z,8.04
2023-01-20T03:46:40.339Z,8.01
2023-01-20T03:48:50.131Z,7.96
2023-01-20T03:51:13.872Z,8.03
2023-01-20T03:53:30.486Z,7.92
2023-01-20T03:55:43.145Z,7.97
2023-01-20T03:58:12.903Z,7.99
2023-01-20T04:00:17.004Z,8.04
2023-01-20T04:02:20.981Z,8.01
2023-01-20T04:04:23.395Z,7.98
2023-01-20T04:06:28.243Z,7.96
2023-01-20T04:08:35.144Z,8.03
2023-01-20T04:10:55.559Z,7.99
2023-01-20T04:12:57.766Z,8.00
2023-01-20T04:15:01.263Z,7.97
2023-01-20T04:17:05.035Z,7.92
2023-01-20T04:19:09.512Z,7.89
2023-01-20T04:21:16.630Z,7.88
2023-01-20T04:23:29.031Z,7.87
2023-01-20T04:25:32.688Z,7.94
2023-01-20T04:27:34.723Z,7.94
2023-01-20T04:29:36.758Z,7.92
2023-01-20T04:31:38.826Z,7.85
2023-01-20T04:33:41.724Z,7.88
2023-01-20T04:35:43.839Z,7.87
2023-01-20T04:37:46.328Z,7.85
2023-01-20T04:39:48.231Z,7.90
2023-01-20T04:41:50.462Z,7.91
2023-01-20T04:43:55.437Z,7.88
2023-01-20T04:45:57.577Z,7.89
2023-01-20T04:47:59.776Z,7.81
2023-01-20T04:50:02.004Z,7.81
2023-01-20T04:52:04.356Z,7.86
2023-01-20T04:54:07.077Z,7.86
2023-01-20T04:56:13.698Z,7.85
2023-01-20T04:58:15.832Z,7.77
2023-01-20T05:00:20.215Z,7.81
2023-01-20T05:02:22.342Z,7.91
2023-01-20T05:04:25.556Z,7.87
2023-01-20T05:06:28.015Z,7.90
2023-01-20T05:08:30.243Z,7.88
2023-01-20T05:10:33.596Z,7.94
2023-01-20T05:12:36.609Z,7.90
2023-01-20T05:14:38.715Z,7.91
2023-01-20T05:16:40.750Z,7.90
2023-01-20T05:18:42.992Z,7.93
2023-01-20T05:20:46.705Z,7.95
2023-01-20T05:22:48.658Z,7.85
2023-01-20T05:24:50.674Z,7.84
2023-01-20T05:26:52.730Z,7.87
2023-01-20T05:28:54.886Z,7.82
2023-01-20T05:30:57.127Z,7.81
2023-01-20T05:32:59.293Z,7.76
2023-01-20T05:35:01.546Z,7.74
2023-01-20T05:37:06.429Z,7.68
2023-01-20T05:39:08.568Z,7.74
2023-01-20T05:41:11.059Z,7.70
2023-01-20T05:43:13.505Z,7.67
2023-01-20T05:45:16.063Z,7.68
2023-01-20T05:47:18.475Z,7.73
2023-01-20T05:49:20.613Z,7.79
2023-01-20T05:51:22.755Z,7.72
2023-01-20T05:53:25.099Z,7.73
2023-01-20T05:55:27.204Z,7.71
2023-01-20T05:57:29.288Z,7.70
2023-01-20T05:59:31.800Z,7.72
2023-01-20T06:01:34.089Z,7.67
2023-01-20T06:03:36.426Z,7.68
2023-01-20T06:05:39.180Z,7.69
2023-01-20T06:07:41.318Z,7.69
2023-01-20T06:09:43.624Z,7.66
2023-01-20T06:11:45.595Z,7.62
2023-01-20T06:13:48.931Z,7.59
2023-01-20T06:15:55.020Z,7.61
2023-01-20T06:17:56.981Z,7.62
2023-01-20T06:20:00.351Z,7.53
2023-01-20T06:22:03.142Z,7.53
2023-01-20T06:24:05.678Z,7.45
2023-01-20T06:26:11.486Z,7.49
2023-01-20T06:28:13.767Z,7.37
2023-01-20T06:30:16.419Z,7.34
2023-01-20T06:32:18.578Z,7.33
2023-01-20T06:34:20.578Z,7.40
2023-01-20T06:36:24.522Z,7.40
2023-01-20T06:38:29.483Z,7.41
2023-01-20T06:40:31.708Z,7.44
2023-01-20T06:42:33.896Z,7.47
2023-01-20T06:44:36.235Z,7.48
2023-01-20T06:46:38.208Z,7.52
2023-01-20T06:48:41.063Z,7.52
2023-01-20T06:50:43.130Z,7.52
2023-01-20T06:52:45.495Z,7.53
2023-01-20T06:54:47.354Z,7.55
2023-01-20T06:56:49.292Z,7.55
2023-01-20T06:58:51.653Z,7.55
2023-01-20T07:00:55.260Z,7.55
2023-01-20T07:02:57.236Z,7.49
2023-01-20T07:05:00.259Z,7.54
2023-01-20T07:07:02.141Z,7.59
2023-01-20T07:09:06.878Z,7.46
2023-01-20T07:11:08.827Z,7.45
2023-01-20T07:13:11.103Z,7.43
2023-01-20T07:15:13.226Z,7.46
2023-01-20T07:17:15.655Z,7.41
2023-01-20T07:19:17.687Z,7.34
2023-01-20T07:21:20.459Z,7.36
2023-01-20T07:23:23.497Z,7.40
2023-01-20T07:25:25.686Z,7.37
2023-01-20T07:27:27.669Z,7.44
2023-01-20T07:29:29.806Z,7.49
2023-01-20T07:31:31.814Z,7.48
2023-01-20T07:33:35.069Z,7.43
2023-01-20T07:35:37.189Z,7.44
2023-01-20T07:38:06.159Z,7.47
2023-01-20T07:40:09.045Z,7.49
2023-01-20T07:42:11.046Z,7.57
2023-01-20T07:44:12.935Z,7.55
2023-01-20T07:46:15.709Z,7.52
2023-01-20T07:48:17.671Z,7.57
2023-01-20T07:50:19.656Z,7.55
2023-01-20T07:52:21.654Z,7.49
2023-01-20T07:54:26.381Z,7.52
2023-01-20T07:56:29.785Z,7.49
2023-01-20T07:58:32.838Z,7.60
2023-01-20T08:00:35.037Z,7.64
2023-01-20T08:02:38.639Z,7.59
2023-01-20T08:04:40.882Z,7.67
2023-01-20T08:06:43.053Z,7.74
2023-01-20T08:08:45.852Z,7.74
2023-01-20T08:10:54.255Z,7.72
2023-01-20T08:12:59.152Z,7.77
2023-01-20T08:15:01.106Z,7.77
2023-01-20T08:17:03.064Z,7.79
2023-01-20T08:19:05.090Z,7.88
2023-01-20T08:21:08.942Z,7.89
2023-01-20T08:23:11.073Z,7.92
2023-01-20T08:25:13.729Z,7.97
2023-01-20T08:27:16.300Z,8.00
2023-01-20T08:29:18.429Z,7.99
2023-01-20T08:31:26.117Z,8.02
2023-01-20T08:33:28.503Z,8.08
2023-01-20T08:35:30.720Z,8.04
2023-01-20T08:37:32.901Z,8.10
2023-01-20T08:39:34.952Z,8.02
2023-01-20T08:41:38.702Z,8.06
2023-01-20T08:43:41.182Z,8.11
2023-01-20T08:45:43.990Z,8.14
2023-01-20T08:47:46.632Z,8.16
2023-01-20T08:49:48.603Z,8.13
2023-01-20T08:51:50.706Z,8.13
2023-01-20T08:53:55.690Z,8.17
2023-01-20T08:56:00.201Z,8.11
2023-01-20T08:58:02.261Z,8.20
2023-01-20T09:00:06.403Z,8.20
2023-01-20T09:02:10.887Z,8.21
2023-01-20T09:04:13.199Z,8.32
2023-01-20T09:06:15.843Z,8.33
2023-01-20T09:08:18.749Z,8.30
2023-01-20T09:10:21.010Z,8.29
2023-01-20T09:12:23.136Z,8.29
2023-01-20T09:14:25.552Z,8.32
2023-01-20T09:16:30.655Z,8.32
2023-01-20T09:18:34.151Z,8.36
2023-01-20T09:20:37.475Z,8.22
2023-01-20T09:22:40.604Z,8.20
2023-01-20T09:24:42.820Z,8.25
2023-01-20T09:26:45.585Z,8.24
2023-01-20T09:28:48.122Z,8.26
2023-01-20T09:30:50.364Z,8.27
2023-01-20T09:32:55.431Z,8.34
2023-01-20T09:34:58.053Z,8.33
2023-01-20T09:37:20.532Z,8.42
2023-01-20T09:39:41.183Z,8.36
2023-01-20T09:42:07.820Z,8.47
2023-01-20T09:44:12.507Z,8.40
2023-01-20T09:46:31.010Z,8.44
2023-01-20T09:49:19.064Z,8.51
2023-01-20T09:51:49.851Z,8.57
2023-01-20T09:54:17.127Z,8.57
2023-01-20T09:56:22.681Z,8.57
2023-01-20T09:59:05.255Z,8.53
2023-01-20T10:01:20.102Z,8.60
2023-01-20T10:03:37.508Z,8.59
2023-01-20T10:05:40.746Z,8.67
2023-01-20T10:07:51.648Z,8.62
2023-01-20T10:10:04.918Z,8.51
2023-01-20T10:12:25.063Z,8.53
2023-01-20T10:14:40.006Z,8.62
2023-01-20T10:17:18.152Z,8.55
2023-01-20T10:19:29.521Z,8.65
2023-01-20T10:21:48.710Z,8.59
2023-01-20T10:24:18.287Z,8.60
2023-01-20T10:26:55.765Z,8.65
2023-01-20T10:33:02.582Z,8.48
2023-01-20T10:35:18.448Z,8.54
2023-01-20T10:37:23.217Z,8.67
2023-01-20T10:40:02.073Z,8.68
2023-01-20T10:42:10.232Z,8.79
2023-01-20T10:44:14.748Z,8.80
2023-01-20T10:46:54.950Z,8.79
2023-01-20T10:49:27.825Z,8.80
2023-01-20T10:51:38.791Z,8.92
2023-01-20T10:53:54.196Z,8.90
2023-01-20T10:56:04.322Z,8.92
2023-01-20T10:58:12.297Z,8.99
2023-01-20T11:00:22.779Z,8.98
2023-01-20T11:02:31.617Z,8.97
2023-01-20T11:04:36.224Z,9.03
2023-01-20T11:06:39.476Z,9.08
2023-01-20T11:08:44.348Z,9.08
2023-01-20T11:10:50.002Z,9.10
2023-01-20T11:12:55.670Z,9.12
2023-01-20T11:15:00.596Z,9.13
2023-01-20T11:17:07.851Z,9.15
2023-01-20T11:19:10.236Z,9.10
2023-01-20T11:21:13.849Z,9.17
2023-01-20T11:23:38.438Z,9.15
2023-01-20T11:25:40.739Z,9.29
2023-01-20T11:27:46.851Z,9.21
2023-01-20T11:29:53.934Z,9.22
2023-01-20T11:31:59.262Z,9.21
2023-01-20T11:34:18.427Z,9.32
2023-01-20T11:36:21.417Z,9.23
2023-01-20T11:38:26.002Z,9.31
2023-01-20T11:40:29.356Z,9.34
2023-01-20T11:46:34.596Z,9.35
2023-01-20T11:48:36.921Z,9.36
2023-01-20T11:50:57.722Z,9.43
2023-01-20T11:53:33.120Z,9.34
2023-01-20T11:55:47.161Z,9.36
2023-01-20T11:57:56.171Z,9.42
2023-01-20T11:59:58.849Z,9.47
2023-01-20T12:02:09.848Z,9.45
2023-01-20T12:04:39.387Z,9.41
2023-01-20T12:06:58.721Z,9.37
2023-01-20T12:09:06.323Z,9.46
2023-01-20T12:11:11.450Z,9.44
2023-01-20T12:13:19.116Z,9.47
2023-01-20T12:15:29.486Z,9.53
2023-01-20T12:17:42.475Z,9.51
2023-01-20T12:20:14.989Z,9.41
2023-01-20T12:22:49.471Z,9.34
2023-01-20T12:25:08.791Z,9.45
2023-01-20T12:27:21.158Z,9.51
2023-01-20T12:29:31.063Z,9.50
2023-01-20T12:31:34.000Z,9.55
2023-01-20T12:33:40.629Z,9.60
2023-01-20T12:36:01.974Z,9.59
2023-01-20T12:38:08.913Z,9.59
2023-01-20T12:40:19.627Z,9.61
2023-01-20T12:43:02.255Z,9.49
2023-01-20T12:45:15.723Z,9.59
2023-01-20T12:47:29.814Z,9.63
2023-01-20T12:49:48.414Z,9.54
2023-01-20T12:52:06.731Z,9.47
2023-01-20T12:54:23.746Z,9.42
2023-01-20T12:56:55.200Z,9.41
2023-01-20T12:59:36.992Z,9.40
2023-01-20T13:01:58.507Z,9.32
2023-01-20T13:04:38.010Z,9.36
2023-01-20T13:06:52.404Z,9.27
2023-01-20T13:09:24.744Z,9.25
2023-01-20T13:11:54.585Z,9.24
2023-01-20T13:14:07.966Z,9.26
2023-01-20T13:16:31.936Z,9.18
2023-01-20T13:18:45.983Z,9.15
2023-01-20T13:20:49.072Z,9.16
2023-01-20T13:22:52.305Z,9.22
2023-01-20T13:24:56.707Z,9.22
2023-01-20T13:27:00.631Z,9.23
2023-01-20T13:29:03.163Z,9.26
2023-01-20T13:31:32.512Z,9.11
2023-01-20T13:33:40.171Z,9.23
2023-01-20T13:35:50.167Z,9.18
2023-01-20T13:37:58.167Z,9.14
2023-01-20T13:40:00.845Z,9.16
2023-01-20T13:42:32.103Z,9.16
2023-01-20T13:44:41.470Z,9.18
2023-01-20T13:46:45.588Z,9.15
2023-01-20T13:49:28.547Z,9.10
2023-01-20T13:51:36.534Z,9.02
2023-01-20T13:53:38.649Z,9.11
2023-01-20T13:55:46.018Z,9.20
2023-01-20T13:57:48.254Z,9.27
2023-01-20T13:59:50.963Z,9.25
2023-01-20T14:01:54.405Z,9.26
2023-01-20T14:04:06.861Z,9.21
2023-01-20T14:06:14.744Z,9.25
2023-01-20T14:08:21.299Z,9.28
2023-01-20T14:10:23.871Z,9.29
2023-01-20T14:12:26.763Z,9.28
2023-01-20T14:14:28.816Z,9.28
2023-01-20T14:16:33.919Z,9.27
2023-01-20T14:18:36.999Z,9.32
2023-01-20T14:20:41.230Z,9.26
2023-01-20T14:22:44.923Z,9.28
2023-01-20T14:24:48.907Z,9.29
2023-01-20T14:26:51.212Z,9.37
2023-01-20T14:28:58.977Z,9.25
2023-01-20T14:31:20.305Z,9.24
2023-01-20T14:33:24.603Z,9.35
2023-01-20T14:35:33.871Z,9.31
2023-01-20T14:37:38.315Z,9.36
2023-01-20T14:39:43.868Z,9.34
2023-01-20T14:41:49.487Z,9.33
2023-01-20T14:43:51.765Z,9.37
2023-01-20T14:45:54.075Z,9.38
2023-01-20T14:47:59.173Z,9.38
2023-01-20T14:50:02.402Z,9.38
2023-01-20T14:52:05.478Z,9.44
2023-01-20T14:54:35.293Z,9.43
2023-01-20T14:56:37.679Z,9.51
2023-01-20T14:58:49.171Z,9.44
2023-01-20T15:00:59.041Z,9.45
2023-01-20T15:03:19.029Z,9.34
2023-01-20T15:05:27.929Z,9.37
2023-01-20T15:07:30.385Z,9.37
2023-01-20T15:09:35.332Z,9.35
2023-01-20T15:11:37.649Z,9.35
2023-01-20T15:13:41.411Z,9.34
2023-01-20T15:15:43.781Z,9.33
2023-01-20T15:18:23.238Z,9.29
2023-01-20T15:20:33.805Z,9.34
2023-01-20T15:22:35.783Z,9.31
2023-01-20T15:24:38.413Z,9.30
2023-01-20T15:26:40.499Z,9.29
2023-01-20T15:28:44.463Z,9.35
2023-01-20T15:30:47.849Z,9.36
2023-01-20T15:32:51.876Z,9.36
2023-01-20T15:34:53.821Z,9.36
2023-01-20T15:36:56.972Z,9.37
2023-01-20T15:38:59.302Z,9.35
2023-01-20T15:41:01.600Z,9.26
2023-01-20T15:43:03.698Z,9.31
2023-01-20T15:45:06.153Z,9.38
2023-01-20T15:47:20.815Z,9.33
2023-01-20T15:49:22.985Z,9.28
2023-01-20T15:51:25.411Z,9.24
2023-01-20T15:53:30.157Z,9.25
2023-01-20T15:55:34.327Z,9.26
2023-01-20T15:57:36.633Z,9.27
2023-01-20T15:59:38.684Z,9.27
2023-01-20T16:01:40.691Z,9.25
2023-01-20T16:03:42.894Z,9.28
2023-01-20T16:05:45.019Z,9.30
2023-01-20T16:07:49.645Z,9.35
2023-01-20T16:09:52.190Z,9.30
2023-01-20T16:11:54.633Z,9.25
2023-01-20T16:13:58.050Z,9.26
2023-01-20T16:16:01.588Z,9.24
2023-01-20T16:18:03.885Z,9.28
2023-01-20T16:20:17.035Z,9.22
2023-01-20T16:22:19.271Z,9.28
2023-01-20T16:24:21.460Z,9.19
2023-01-20T16:26:29.182Z,9.17
2023-01-20T16:28:31.206Z,9.19
2023-01-20T16:30:33.255Z,9.18
2023-01-20T16:32:35.303Z,9.09
2023-01-20T16:34:37.561Z,9.15
2023-01-20T16:36:39.681Z,9.13
2023-01-20T16:38:42.101Z,9.05
2023-01-20T16:40:58.795Z,9.04
2023-01-20T16:43:03.317Z,9.06
2023-01-20T16:45:06.519Z,8.97
2023-01-20T16:47:08.725Z,9.04
2023-01-20T16:49:10.955Z,9.00
2023-01-20T16:51:19.057Z,8.92
2023-01-20T16:53:21.091Z,9.02
2023-01-20T16:55:24.144Z,8.99
2023-01-20T16:57:26.391Z,8.90
2023-01-20T16:59:28.558Z,8.92
2023-01-20T17:01:30.853Z,8.81
2023-01-20T17:03:33.296Z,8.74
2023-01-20T17:05:35.528Z,8.60
2023-01-20T17:07:37.796Z,8.53
2023-01-20T17:09:39.975Z,8.47
2023-01-20T17:11:42.215Z,8.38
2023-01-20T17:13:44.703Z,8.41
2023-01-20T17:15:46.764Z,8.34
2023-01-20T17:17:50.127Z,8.31
2023-01-20T17:19:52.496Z,8.26
2023-01-20T17:21:57.464Z,8.20
2023-01-20T17:24:02.779Z,8.16
2023-01-20T17:26:06.578Z,8.17
2023-01-20T17:28:08.622Z,8.18
2023-01-20T17:30:11.367Z,8.17
2023-01-20T17:32:14.222Z,8.16
2023-01-20T17:34:16.309Z,8.12
2023-01-20T17:36:18.830Z,8.11
2023-01-20T17:38:21.004Z,8.13
2023-01-20T17:40:23.545Z,8.03
2023-01-20T17:42:25.778Z,8.04
2023-01-20T17:44:28.069Z,8.04
2023-01-20T17:46:31.157Z,8.02
2023-01-20T17:48:35.891Z,8.00
2023-01-20T17:50:39.179Z,8.00
2023-01-20T17:52:41.524Z,7.98
2023-01-20T17:54:44.110Z,7.99
2023-01-20T17:56:48.106Z,7.97
2023-01-20T17:58:50.754Z,7.97
2023-01-20T18:00:53.144Z,7.99
2023-01-20T18:02:56.405Z,7.87
2023-01-20T18:04:58.556Z,7.88
2023-01-20T18:07:00.347Z,7.86
2023-01-20T18:09:03.062Z,7.84
2023-01-20T18:11:16.642Z,7.84
2023-01-20T18:13:18.656Z,7.81
2023-01-20T18:15:21.454Z,7.69
2023-01-20T18:17:24.105Z,7.68
2023-01-20T18:19:26.280Z,7.59
2023-01-20T18:21:34.776Z,7.59
2023-01-20T18:23:39.153Z,7.52
2023-01-20T18:25:41.518Z,7.52
2023-01-20T18:27:44.007Z,7.46
2023-01-20T18:29:46.103Z,7.43
2023-01-20T18:31:48.188Z,7.32
2023-01-20T18:33:52.193Z,7.34
2023-01-20T18:35:55.686Z,7.43
2023-01-20T18:38:00.917Z,7.34
2023-01-20T18:40:03.736Z,7.32
2023-01-20T18:42:05.988Z,7.28
2023-01-20T18:44:08.883Z,7.24
2023-01-20T18:46:11.165Z,7.27
2023-01-20T18:48:13.265Z,7.23
2023-01-20T18:50:16.697Z,7.29
2023-01-20T18:52:22.059Z,7.29
2023-01-20T18:54:25.957Z,7.19
2023-01-20T18:56:29.979Z,7.17
2023-01-20T18:58:34.356Z,7.23
2023-01-20T19:00:39.736Z,7.17
2023-01-20T19:02:44.060Z,7.14
2023-01-20T19:04:46.132Z,7.03
2023-01-20T19:06:48.316Z,7.05
2023-01-20T19:08:50.713Z,7.05
2023-01-20T19:10:52.857Z,7.02
2023-01-20T19:12:54.957Z,6.89
2023-01-20T19:14:57.443Z,6.88
2023-01-20T19:16:59.669Z,6.89
2023-01-20T19:19:06.486Z,6.91
2023-01-20T19:21:11.527Z,6.87
2023-01-20T19:23:14.208Z,6.81
2023-01-20T19:25:16.432Z,6.76
2023-01-20T19:27:19.375Z,6.80
2023-01-20T19:29:22.180Z,6.73
2023-01-20T19:31:27.305Z,6.67
2023-01-20T19:33:29.351Z,6.68
2023-01-20T19:35:33.631Z,6.58
2023-01-20T19:37:35.609Z,6.54
2023-01-20T19:39:37.796Z,6.55
2023-01-20T19:41:39.735Z,6.51
2023-01-20T19:43:42.699Z,6.35
2023-01-20T19:45:45.971Z,6.46
2023-01-20T19:47:48.191Z,6.47
2023-01-20T19:49:50.232Z,6.46
2023-01-20T19:51:52.281Z,6.48
2023-01-20T19:53:58.333Z,6.42
2023-01-20T19:56:09.531Z,6.42
2023-01-20T19:58:11.659Z,6.43
2023-01-20T20:00:14.373Z,6.41
2023-01-20T20:02:16.618Z,6.41
2023-01-20T20:04:24.275Z,6.40
2023-01-20T20:06:34.800Z,6.35
2023-01-20T20:08:36.921Z,6.33
2023-01-20T20:10:42.829Z,6.16
2023-01-20T20:12:45.456Z,6.24
2023-01-20T20:14:47.439Z,6.35
2023-01-20T20:16:50.782Z,6.35
2023-01-20T20:18:53.912Z,6.30
2023-01-20T20:20:56.305Z,6.33
2023-01-20T20:22:58.522Z,6.35
2023-01-20T20:25:00.434Z,6.33
2023-01-20T20:27:02.531Z,6.31
2023-01-20T20:29:07.298Z,6.35
2023-01-20T20:31:10.024Z,6.30
2023-01-20T20:33:12.726Z,6.26
2023-01-20T20:35:15.113Z,6.23
2023-01-20T20:37:18.937Z,6.25
2023-01-20T20:39:20.952Z,6.20
2023-01-20T20:41:25.822Z,6.21
2023-01-20T20:43:29.282Z,6.30
2023-01-20T20:45:31.624Z,6.27
2023-01-20T20:47:35.459Z,6.32
2023-01-20T20:49:37.373Z,6.37
2023-01-20T20:51:42.165Z,6.26
2023-01-20T20:53:44.613Z,6.37
2023-01-20T20:55:46.707Z,6.36
2023-01-20T20:57:48.777Z,6.31
2023-01-20T20:59:58.874Z,6.26
2023-01-20T21:02:01.941Z,6.26
2023-01-20T21:04:04.403Z,6.18
2023-01-20T21:06:07.222Z,6.09
2023-01-20T21:08:09.309Z,5.95
2023-01-20T21:10:14.060Z,5.97
2023-01-20T21:12:16.582Z,6.01
2023-01-20T21:14:21.371Z,5.94
2023-01-20T21:16:24.430Z,5.95
2023-01-20T21:18:31.384Z,5.98
2023-01-20T21:20:34.022Z,6.03
2023-01-20T21:22:36.411Z,6.00
2023-01-20T21:24:38.425Z,6.04
2023-01-20T21:26:41.285Z,6.06
2023-01-20T21:28:44.583Z,6.01
2023-01-20T21:30:47.087Z,5.92
2023-01-20T21:32:49.428Z,5.89
2023-01-20T21:34:55.390Z,5.80
2023-01-20T21:36:57.418Z,5.83
2023-01-20T21:38:59.659Z,5.78
2023-01-20T21:41:10.062Z,5.68
2023-01-20T21:43:30.936Z,5.65
2023-01-20T21:45:33.029Z,5.74
2023-01-20T21:47:35.244Z,5.56
2023-01-20T21:49:55.677Z,5.60
2023-01-20T21:52:16.617Z,5.57
2023-01-20T21:54:18.981Z,5.53
2023-01-20T21:56:21.434Z,5.47
2023-01-20T21:58:24.403Z,5.48
2023-01-20T22:00:30.260Z,5.49
2023-01-20T22:02:32.641Z,5.41
2023-01-20T22:04:40.438Z,5.43
2023-01-20T22:06:43.173Z,5.39
2023-01-20T22:08:48.232Z,5.44
2023-01-20T22:11:01.923Z,5.47
2023-01-20T22:13:04.021Z,5.57
2023-01-20T22:15:07.112Z,5.59
2023-01-20T22:17:11.349Z,5.68
2023-01-20T22:19:14.077Z,5.63
2023-01-20T22:21:17.227Z,5.71
2023-01-20T22:23:19.334Z,5.70
2023-01-20T22:25:21.300Z,5.67
2023-01-20T22:27:25.480Z,5.63
2023-01-20T22:29:27.971Z,5.65
2023-01-20T22:31:31.366Z,5.71
2023-01-20T22:33:33.777Z,5.79
2023-01-20T22:35:35.892Z,5.65
2023-01-20T22:37:38.099Z,5.67
2023-01-20T22:39:40.151Z,5.67
2023-01-20T22:41:42.680Z,5.64
2023-01-20T22:43:45.179Z,5.64
2023-01-20T22:45:48.502Z,5.60
2023-01-20T22:47:50.812Z,5.59
2023-01-20T22:49:55.351Z,5.58
2023-01-20T22:51:57.771Z,5.56
2023-01-20T22:54:01.248Z,5.51
2023-01-20T22:56:13.680Z,5.45
2023-01-20T22:58:17.131Z,5.47
2023-01-20T23:00:19.530Z,5.52
2023-01-20T23:02:21.964Z,5.46
2023-01-20T23:04:24.264Z,5.51
2023-01-20T23:06:28.211Z,5.54
2023-01-20T23:08:32.133Z,5.57
2023-01-20T23:10:46.464Z,5.59
2023-01-20T23:12:51.112Z,5.58
2023-01-20T23:14:59.229Z,5.63
2023-01-20T23:17:03.448Z,5.62
2023-01-20T23:19:05.929Z,5.52
2023-01-20T23:21:08.328Z,5.57
2023-01-20T23:23:14.294Z,5.52
2023-01-20T23:25:16.821Z,5.59
2023-01-20T23:27:19.276Z,5.58
2023-01-20T23:29:21.653Z,5.59
2023-01-20T23:31:26.057Z,5.58
2023-01-20T23:33:28.502Z,5.62
2023-01-20T23:35:30.617Z,5.60
2023-01-20T23:37:32.604Z,5.65
2023-01-20T23:39:34.638Z,5.65
2023-01-20T23:41:36.746Z,5.67
2023-01-20T23:43:38.977Z,5.65
2023-01-20T23:45:40.958Z,5.57
2023-01-20T23:47:43.362Z,5.58
2023-01-20T23:49:45.387Z,5.67
2023-01-20T23:51:47.747Z,5.64
2023-01-20T23:53:49.743Z,5.65
2023-01-20T23:55:51.764Z,5.62
2023-01-20T23:57:53.771Z,5.66
2023-01-20T23:59:55.913Z,5.67
